Time;durP1;ratioP1;P1;durP2;ratioP2;P2;SDS_P1;SDS_P2;PMS_P1;PMS_P2;Temp;Humidity;BMP_temperature;BMP_pressure;BME280_temperature;BME280_humidity;BME280_pressure;Samples;Min_cycle;Max_cycle;Signal;HPM_P1;HPM_P2
2023/09/03 00:02:23;;;;;;;7.35;4.03;;;;;;;;;;5094160;28;20203;-45
2023/09/03 00:04:50;;;;;;;4.80;3.33;;;;;;;;;;5094067;28;20211;-45
2023/09/03 00:07:17;;;;;;;4.97;3.17;;;;;;;;;;5093904;28;20209;-45
2023/09/03 00:09:44;;;;;;;7.85;3.10;;;;;;;;;;5094171;28;20195;-47
2023/09/03 00:12:11;;;;;;;5.00;3.38;;;;;;;;;;5093696;28;20210;-46
2023/09/03 00:14:38;;;;;;;5.40;3.33;;;;;;;;;;5094010;28;20311;-46
2023/09/03 00:17:06;;;;;;;4.00;3.10;;;;;;;;;;5093967;28;20659;-45
2023/09/03 00:19:33;;;;;;;9.18;3.90;;;;;;;;;;5093619;28;20203;-45
2023/09/03 00:22:01;;;;;;;5.20;3.75;;;;;;;;;;5093797;28;20217;-45
2023/09/03 00:24:32;;;;;;;5.68;3.70;;;;;;;;;;5094023;28;20256;-45
2023/09/03 00:27:00;;;;;;;5.47;3.67;;;;;;;;;;5093647;28;20202;-45
2023/09/03 00:29:27;;;;;;;7.70;4.15;;;;;;;;;;5093567;28;20732;-45
2023/09/03 00:31:55;;;;;;;6.13;3.25;;;;;;;;;;5093663;28;20203;-46
2023/09/03 00:34:22;;;;;;;4.25;3.15;;;;;;;;;;5091573;28;20683;-45
2023/09/03 00:36:49;;;;;;;8.35;4.05;;;;;;;;;;5092338;28;20667;-47
2023/09/03 00:39:18;;;;;;;6.30;3.75;;;;;;;;;;5092664;28;20202;-45
2023/09/03 00:41:46;;;;;;;8.73;3.60;;;;;;;;;;5093892;28;20204;-48
2023/09/03 00:44:14;;;;;;;7.75;4.10;;;;;;;;;;5093803;28;20229;-45
2023/09/03 00:46:42;;;;;;;5.25;3.78;;;;;;;;;;5092166;28;20202;-47
2023/09/03 00:49:11;;;;;;;7.57;3.47;;;;;;;;;;5092315;28;20199;-46
2023/09/03 00:51:39;;;;;;;6.43;3.22;;;;;;;;;;5092154;28;20206;-48
2023/09/03 00:54:06;;;;;;;5.65;3.65;;;;;;;;;;5093552;28;20254;-45
2023/09/03 00:56:33;;;;;;;5.78;3.95;;;;;;;;;;5092055;28;20600;-48
2023/09/03 00:59:00;;;;;;;6.50;4.20;;;;;;;;;;5093441;28;20237;-46
2023/09/03 01:01:29;;;;;;;6.63;4.70;;;;;;;;;;5092224;28;20191;-51
2023/09/03 01:03:56;;;;;;;9.38;4.15;;;;;;;;;;5093506;28;20206;-48
2023/09/03 01:06:25;;;;;;;8.25;3.75;;;;;;;;;;5093367;28;20187;-47
2023/09/03 01:08:52;;;;;;;6.70;3.83;;;;;;;;;;5093512;28;20209;-47
2023/09/03 01:11:25;;;;;;;6.03;3.97;;;;;;;;;;5093501;28;20296;-47
2023/09/03 01:14:25;;;;;;;6.50;4.10;;;;;;;;;;5093200;28;20218;-49
2023/09/03 01:17:06;;;;;;;9.10;4.75;;;;;;;;;;5092037;28;20194;-45
2023/09/03 01:19:42;;;;;;;10.95;4.50;;;;;;;;;;5092373;28;20187;-46
2023/09/03 01:22:37;;;;;;;6.25;3.90;;;;;;;;;;5091951;28;20613;-47
2023/09/03 01:25:28;;;;;;;6.88;3.83;;;;;;;;;;5076940;28;20304;-46
2023/09/03 01:28:17;;;;;;;5.40;3.78;;;;;;;;;;5091869;28;20198;-45
2023/09/03 01:30:45;;;;;;;5.13;3.65;;;;;;;;;;5092972;28;20680;-45
2023/09/03 01:33:13;;;;;;;6.07;4.30;;;;;;;;;;5093279;28;20202;-47
2023/09/03 01:35:40;;;;;;;9.32;4.57;;;;;;;;;;5091619;28;20309;-45
2023/09/03 01:38:08;;;;;;;6.97;4.03;;;;;;;;;;5092098;28;20546;-45
2023/09/03 01:40:35;;;;;;;6.00;3.90;;;;;;;;;;5091767;28;20563;-45
2023/09/03 01:43:02;;;;;;;7.47;4.00;;;;;;;;;;5092852;28;20206;-48
2023/09/03 01:46:02;;;;;;;8.05;3.85;;;;;;;;;;5093873;28;20202;-45
2023/09/03 01:49:07;;;;;;;8.93;4.03;;;;;;;;;;5105354;28;20210;-45
2023/09/03 01:51:37;;;;;;;9.25;4.20;;;;;;;;;;5095279;28;20208;-45
2023/09/03 01:54:18;;;;;;;8.77;4.13;;;;;;;;;;5095251;28;20234;-45
2023/09/03 01:57:30;;;;;;;6.28;3.65;;;;;;;;;;5095679;28;20195;-45
2023/09/03 02:00:00;;;;;;;6.65;3.78;;;;;;;;;;5062942;28;20720;-45
2023/09/03 02:02:28;;;;;;;5.97;4.03;;;;;;;;;;5095587;28;20194;-45
2023/09/03 02:04:55;;;;;;;6.38;3.85;;;;;;;;;;5096520;28;20248;-45
2023/09/03 02:07:23;;;;;;;5.63;4.13;;;;;;;;;;5095054;28;20198;-45
2023/09/03 02:09:50;;;;;;;9.27;3.58;;;;;;;;;;5095158;28;20542;-46
2023/09/03 02:12:23;;;;;;;7.00;4.45;;;;;;;;;;5094990;28;20199;-45
2023/09/03 02:14:52;;;;;;;8.48;4.47;;;;;;;;;;5095110;28;20234;-46
2023/09/03 02:17:23;;;;;;;6.75;3.92;;;;;;;;;;5096162;28;20268;-46
2023/09/03 02:19:52;;;;;;;4.93;3.75;;;;;;;;;;5096037;28;20655;-46
2023/09/03 02:22:20;;;;;;;8.68;4.13;;;;;;;;;;5096035;28;20198;-47
2023/09/03 02:24:49;;;;;;;6.57;3.53;;;;;;;;;;5095733;28;20238;-44
2023/09/03 02:27:17;;;;;;;8.05;3.30;;;;;;;;;;5094666;28;20203;-46
2023/09/03 02:29:44;;;;;;;5.20;3.47;;;;;;;;;;5095784;28;20602;-45
2023/09/03 02:32:11;;;;;;;6.28;3.92;;;;;;;;;;5094755;28;20209;-46
2023/09/03 02:34:38;;;;;;;7.65;3.33;;;;;;;;;;5094408;28;20223;-45
2023/09/03 02:37:06;;;;;;;5.00;3.45;;;;;;;;;;5094281;28;20205;-45
2023/09/03 02:39:34;;;;;;;7.53;3.42;;;;;;;;;;5094590;28;20210;-45
2023/09/03 02:42:02;;;;;;;5.82;3.42;;;;;;;;;;5094284;28;20213;-46
2023/09/03 02:44:29;;;;;;;4.53;3.45;;;;;;;;;;5095705;28;20207;-45
2023/09/03 02:46:56;;;;;;;4.30;3.33;;;;;;;;;;5094249;28;20214;-45
2023/09/03 02:49:24;;;;;;;7.18;3.53;;;;;;;;;;5094324;28;20207;-45
2023/09/03 02:51:51;;;;;;;7.75;4.30;;;;;;;;;;5094278;28;20202;-45
2023/09/03 02:54:19;;;;;;;8.60;4.15;;;;;;;;;;5095536;28;20580;-44
2023/09/03 02:56:46;;;;;;;10.63;4.53;;;;;;;;;;5093837;28;20218;-46
2023/09/03 02:59:14;;;;;;;10.45;4.65;;;;;;;;;;5094715;28;20545;-48
2023/09/03 03:01:42;;;;;;;7.93;4.25;;;;;;;;;;5094013;28;20624;-45
2023/09/03 03:04:09;;;;;;;6.05;4.30;;;;;;;;;;5095191;28;20209;-45
2023/09/03 03:06:36;;;;;;;7.57;4.45;;;;;;;;;;5095397;28;20210;-46
2023/09/03 03:09:04;;;;;;;6.65;4.72;;;;;;;;;;5094891;28;20209;-47
2023/09/03 03:11:32;;;;;;;7.28;4.63;;;;;;;;;;5094086;28;20207;-46
2023/09/03 03:14:01;;;;;;;10.82;5.25;;;;;;;;;;5093657;28;20207;-46
2023/09/03 03:16:32;;;;;;;13.35;5.05;;;;;;;;;;5093467;28;20203;-46
2023/09/03 03:19:04;;;;;;;8.10;4.95;;;;;;;;;;5094919;28;20214;-45
2023/09/03 03:21:33;;;;;;;8.20;4.93;;;;;;;;;;5092770;28;20675;-45
2023/09/03 03:24:04;;;;;;;9.50;5.25;;;;;;;;;;5093308;28;20234;-46
2023/09/03 03:26:35;;;;;;;8.70;4.82;;;;;;;;;;5093433;28;20209;-46
2023/09/03 03:29:04;;;;;;;6.57;4.68;;;;;;;;;;5093229;28;20211;-45
2023/09/03 03:31:35;;;;;;;7.38;4.60;;;;;;;;;;5094383;28;20218;-45
2023/09/03 03:34:03;;;;;;;9.27;5.45;;;;;;;;;;5093354;28;20230;-46
2023/09/03 03:36:32;;;;;;;9.15;5.10;;;;;;;;;;5093364;28;20234;-44
2023/09/03 03:38:59;;;;;;;10.30;4.95;;;;;;;;;;5094120;28;20201;-45
2023/09/03 03:41:27;;;;;;;7.32;4.60;;;;;;;;;;5092566;28;20636;-48
2023/09/03 03:43:55;;;;;;;8.63;4.60;;;;;;;;;;5094093;28;20202;-49
2023/09/03 03:46:25;;;;;;;10.30;4.85;;;;;;;;;;5092990;28;20210;-46
2023/09/03 03:48:55;;;;;;;7.53;4.80;;;;;;;;;;5093154;28;20240;-45
2023/09/03 03:51:22;;;;;;;8.95;5.35;;;;;;;;;;5092970;28;20202;-45
2023/09/03 03:53:50;;;;;;;7.32;4.70;;;;;;;;;;5092919;28;20207;-48
2023/09/03 03:56:17;;;;;;;8.15;4.75;;;;;;;;;;5092922;28;20219;-46
2023/09/03 03:58:46;;;;;;;8.45;4.68;;;;;;;;;;5093008;28;20191;-45
2023/09/03 04:01:18;;;;;;;7.00;4.63;;;;;;;;;;5092913;28;20205;-46
2023/09/03 04:03:48;;;;;;;6.13;4.25;;;;;;;;;;5092588;28;20198;-46
2023/09/03 04:06:15;;;;;;;11.40;5.43;;;;;;;;;;5092722;28;20206;-46
2023/09/03 04:08:45;;;;;;;8.70;5.55;;;;;;;;;;5091958;28;20682;-48
2023/09/03 04:11:15;;;;;;;7.97;5.32;;;;;;;;;;5092100;28;20195;-49
2023/09/03 04:13:43;;;;;;;9.38;5.05;;;;;;;;;;5093668;28;20202;-46
2023/09/03 04:16:13;;;;;;;8.32;5.28;;;;;;;;;;5092492;28;20313;-45
2023/09/03 04:18:43;;;;;;;11.75;5.70;;;;;;;;;;5092551;28;20191;-48
2023/09/03 04:21:11;;;;;;;10.63;5.97;;;;;;;;;;5076225;28;20195;-48
2023/09/03 04:23:38;;;;;;;9.10;5.78;;;;;;;;;;5092477;28;20297;-48
2023/09/03 04:26:08;;;;;;;11.00;5.78;;;;;;;;;;5092875;28;20207;-46
2023/09/03 04:28:41;;;;;;;8.63;5.53;;;;;;;;;;5092952;28;20186;-45
2023/09/03 04:31:08;;;;;;;8.95;5.72;;;;;;;;;;5092544;28;20289;-46
2023/09/03 04:33:38;;;;;;;7.90;5.65;;;;;;;;;;5092789;28;20179;-46
2023/09/03 04:36:08;;;;;;;10.55;6.68;;;;;;;;;;5092251;28;20218;-46
2023/09/03 04:38:35;;;;;;;11.00;6.88;;;;;;;;;;5092707;28;20259;-46
2023/09/03 04:41:04;;;;;;;13.15;6.97;;;;;;;;;;5092402;28;20717;-46
2023/09/03 04:43:46;;;;;;;10.43;6.10;;;;;;;;;;5092315;28;20213;-46
2023/09/03 04:46:18;;;;;;;8.48;6.07;;;;;;;;;;5092229;28;20220;-47
2023/09/03 04:48:45;;;;;;;8.77;6.53;;;;;;;;;;5093423;28;20561;-46
2023/09/03 04:51:12;;;;;;;11.55;6.53;;;;;;;;;;5092304;28;20194;-45
2023/09/03 04:53:40;;;;;;;10.38;6.25;;;;;;;;;;5092223;28;20203;-48
2023/09/03 04:56:14;;;;;;;10.75;5.97;;;;;;;;;;5092411;28;20301;-45
2023/09/03 04:58:44;;;;;;;9.40;6.07;;;;;;;;;;5092197;28;20201;-45
2023/09/03 05:01:16;;;;;;;9.30;6.57;;;;;;;;;;5092408;28;20280;-45
2023/09/03 05:03:48;;;;;;;17.15;6.95;;;;;;;;;;5092397;28;20203;-46
2023/09/03 05:06:17;;;;;;;11.15;6.80;;;;;;;;;;5088548;28;20203;-45
2023/09/03 05:08:48;;;;;;;14.45;6.97;;;;;;;;;;5072263;28;20207;-45
2023/09/03 05:11:17;;;;;;;9.73;6.97;;;;;;;;;;5071858;28;20207;-46
2023/09/03 05:13:46;;;;;;;11.82;7.43;;;;;;;;;;5072873;28;20203;-45
2023/09/03 05:16:15;;;;;;;9.70;7.60;;;;;;;;;;5072013;28;20251;-46
2023/09/03 05:18:43;;;;;;;11.35;8.02;;;;;;;;;;5071929;28;20207;-48
2023/09/03 05:21:11;;;;;;;12.52;7.60;;;;;;;;;;5073496;28;20200;-45
2023/09/03 05:23:38;;;;;;;10.95;7.50;;;;;;;;;;5075444;28;20242;-47
2023/09/03 05:26:06;;;;;;;10.13;7.22;;;;;;;;;;5075082;28;20599;-46
2023/09/03 05:28:36;;;;;;;11.52;7.70;;;;;;;;;;5075314;28;20203;-46
2023/09/03 05:31:03;;;;;;;12.25;7.97;;;;;;;;;;5075266;28;20286;-46
2023/09/03 05:33:31;;;;;;;13.32;9.38;;;;;;;;;;5075159;28;20204;-46
2023/09/03 05:35:59;;;;;;;13.43;8.30;;;;;;;;;;5074799;28;20223;-46
2023/09/03 05:38:26;;;;;;;12.20;8.38;;;;;;;;;;5075250;28;20195;-45
2023/09/03 05:40:58;;;;;;;11.55;8.30;;;;;;;;;;5083560;28;20202;-48
2023/09/03 05:43:26;;;;;;;10.25;7.72;;;;;;;;;;5089609;28;20202;-47
2023/09/03 05:45:55;;;;;;;17.20;7.93;;;;;;;;;;5084335;28;20200;-48
2023/09/03 05:48:23;;;;;;;14.27;7.90;;;;;;;;;;5087588;28;20203;-46
2023/09/03 05:50:57;;;;;;;12.45;7.75;;;;;;;;;;5085792;28;20285;-46
2023/09/03 05:53:27;;;;;;;13.88;7.28;;;;;;;;;;5085555;28;20607;-47
2023/09/03 05:56:03;;;;;;;11.48;7.07;;;;;;;;;;5083717;28;20246;-48
2023/09/03 05:58:31;;;;;;;11.65;6.63;;;;;;;;;;5083231;28;20199;-45
2023/09/03 06:01:06;;;;;;;10.15;6.47;;;;;;;;;;5083842;28;20202;-47
2023/09/03 06:03:34;;;;;;;10.07;6.82;;;;;;;;;;5083877;28;20198;-46
2023/09/03 06:06:06;;;;;;;11.45;6.68;;;;;;;;;;5086174;28;20199;-48
2023/09/03 06:08:35;;;;;;;14.63;7.10;;;;;;;;;;5086854;28;20218;-46
2023/09/03 06:11:03;;;;;;;11.35;6.53;;;;;;;;;;5089677;28;20203;-45
2023/09/03 06:13:32;;;;;;;19.17;7.07;;;;;;;;;;5084322;28;20203;-45
2023/09/03 06:15:59;;;;;;;12.43;6.88;;;;;;;;;;5083806;28;20706;-47
2023/09/03 06:18:27;;;;;;;10.73;6.90;;;;;;;;;;5083935;28;20260;-48
2023/09/03 06:20:54;;;;;;;10.93;6.88;;;;;;;;;;5088929;28;20221;-47
2023/09/03 06:23:21;;;;;;;11.30;7.28;;;;;;;;;;5086428;28;20230;-46
2023/09/03 06:25:50;;;;;;;13.88;7.55;;;;;;;;;;5085244;28;20191;-46
2023/09/03 06:28:17;;;;;;;13.55;7.00;;;;;;;;;;5084069;28;20198;-47
2023/09/03 06:30:45;;;;;;;10.55;7.43;;;;;;;;;;5084247;28;20199;-47
2023/09/03 06:33:13;;;;;;;10.13;7.60;;;;;;;;;;5083953;28;20659;-46
2023/09/03 06:35:40;;;;;;;12.82;7.32;;;;;;;;;;5085215;28;20754;-48
2023/09/03 06:38:07;;;;;;;13.95;7.55;;;;;;;;;;5085426;28;20195;-47
2023/09/03 06:40:34;;;;;;;12.27;7.28;;;;;;;;;;5079456;28;20261;-46
2023/09/03 06:43:01;;;;;;;16.05;6.90;;;;;;;;;;5076828;28;20273;-48
2023/09/03 06:45:29;;;;;;;12.32;7.75;;;;;;;;;;5087025;28;20230;-47
2023/09/03 06:47:56;;;;;;;11.88;7.30;;;;;;;;;;5073357;28;20231;-48
2023/09/03 06:50:23;;;;;;;11.88;6.78;;;;;;;;;;5086064;28;20297;-46
2023/09/03 06:52:50;;;;;;;11.63;6.88;;;;;;;;;;5075831;28;20230;-48
2023/09/03 06:55:18;;;;;;;9.63;6.43;;;;;;;;;;5088387;28;20265;-48
2023/09/03 06:57:45;;;;;;;10.55;6.57;;;;;;;;;;5079414;28;20227;-52
2023/09/03 07:00:13;;;;;;;11.43;6.40;;;;;;;;;;5083014;28;20210;-50
2023/09/03 07:02:40;;;;;;;9.27;6.10;;;;;;;;;;5079427;28;20231;-49
2023/09/03 07:05:08;;;;;;;8.77;5.40;;;;;;;;;;5080720;28;20215;-51
2023/09/03 07:07:35;;;;;;;9.18;6.00;;;;;;;;;;5072192;28;20443;-49
2023/09/03 07:10:03;;;;;;;7.97;5.25;;;;;;;;;;5091337;28;20590;-51
2023/09/03 07:12:30;;;;;;;9.50;5.00;;;;;;;;;;5086147;28;20216;-51
2023/09/03 07:14:57;;;;;;;8.57;5.40;;;;;;;;;;5072455;28;20235;-50
2023/09/03 07:17:24;;;;;;;7.32;5.10;;;;;;;;;;5072782;28;20300;-49
2023/09/03 07:19:55;;;;;;;10.10;5.20;;;;;;;;;;5089773;28;20229;-50
2023/09/03 07:22:22;;;;;;;6.28;4.22;;;;;;;;;;5077818;28;20221;-49
2023/09/03 07:24:53;;;;;;;7.07;4.65;;;;;;;;;;5084224;28;20234;-49
2023/09/03 07:27:20;;;;;;;7.32;4.43;;;;;;;;;;5084878;28;20225;-50
2023/09/03 07:29:51;;;;;;;8.88;4.93;;;;;;;;;;5077182;28;20628;-48
2023/09/03 07:32:22;;;;;;;6.47;4.13;;;;;;;;;;5076582;28;20215;-51
2023/09/03 07:34:50;;;;;;;6.18;4.22;;;;;;;;;;5076800;28;20234;-49
2023/09/03 07:37:18;;;;;;;8.05;4.68;;;;;;;;;;5072906;28;20235;-50
2023/09/03 07:39:46;;;;;;;7.15;3.58;;;;;;;;;;5072730;28;20231;-49
2023/09/03 07:42:13;;;;;;;6.03;3.33;;;;;;;;;;5071829;28;20227;-50
2023/09/03 07:44:40;;;;;;;5.93;3.47;;;;;;;;;;5077304;28;20638;-51
2023/09/03 07:47:07;;;;;;;5.93;3.78;;;;;;;;;;5083209;28;20223;-49
2023/09/03 07:49:34;;;;;;;4.07;3.08;;;;;;;;;;5077967;28;20344;-51
2023/09/03 07:52:02;;;;;;;7.95;3.75;;;;;;;;;;5083281;28;20215;-48
2023/09/03 07:54:29;;;;;;;6.05;2.65;;;;;;;;;;5075750;28;20312;-48
2023/09/03 07:56:56;;;;;;;5.68;3.35;;;;;;;;;;5091269;28;20242;-48
2023/09/03 07:59:23;;;;;;;5.78;3.17;;;;;;;;;;5081829;28;20305;-52
2023/09/03 08:01:51;;;;;;;5.93;3.35;;;;;;;;;;5072914;28;20273;-49
2023/09/03 08:04:22;;;;;;;5.57;3.30;;;;;;;;;;5072143;28;20230;-49
2023/09/03 08:06:49;;;;;;;6.35;3.30;;;;;;;;;;5072931;28;20277;-47
2023/09/03 08:09:16;;;;;;;6.72;3.30;;;;;;;;;;5070678;28;20216;-47
2023/09/03 08:11:44;;;;;;;6.57;3.35;;;;;;;;;;5084756;28;20215;-49
2023/09/03 08:14:11;;;;;;;6.05;3.10;;;;;;;;;;5075511;28;20217;-49
2023/09/03 08:16:39;;;;;;;4.22;2.92;;;;;;;;;;5072388;28;20585;-48
2023/09/03 08:19:06;;;;;;;3.67;2.55;;;;;;;;;;5071167;28;20273;-48
2023/09/03 08:21:33;;;;;;;5.03;2.58;;;;;;;;;;5072108;28;20223;-48
2023/09/03 08:24:00;;;;;;;4.90;2.78;;;;;;;;;;5071760;28;20235;-49
2023/09/03 08:26:27;;;;;;;5.13;2.90;;;;;;;;;;5089172;28;20227;-48
2023/09/03 08:28:54;;;;;;;6.03;2.90;;;;;;;;;;5087207;28;20239;-48
2023/09/03 08:31:22;;;;;;;4.43;2.65;;;;;;;;;;5072209;28;20215;-51
2023/09/03 08:33:53;;;;;;;6.90;2.60;;;;;;;;;;5072063;28;20302;-50
2023/09/03 08:36:22;;;;;;;4.15;2.70;;;;;;;;;;5088897;28;20268;-49
2023/09/03 08:38:49;;;;;;;5.32;2.60;;;;;;;;;;5072343;28;20222;-51
2023/09/03 08:41:18;;;;;;;7.00;2.25;;;;;;;;;;5076846;28;20226;-48
2023/09/03 08:43:55;;;;;;;7.50;3.15;;;;;;;;;;5085982;28;20292;-49
2023/09/03 08:46:25;;;;;;;5.78;2.45;;;;;;;;;;5070790;28;20215;-48
2023/09/03 08:48:54;;;;;;;3.85;2.28;;;;;;;;;;5088384;28;20218;-50
2023/09/03 08:51:21;;;;;;;5.07;2.15;;;;;;;;;;5082586;28;20572;-49
2023/09/03 08:53:50;;;;;;;4.65;2.35;;;;;;;;;;5070055;28;20695;-49
2023/09/03 08:56:18;;;;;;;4.78;2.30;;;;;;;;;;5088056;28;20241;-48
2023/09/03 08:58:45;;;;;;;5.13;2.42;;;;;;;;;;5091156;28;20629;-49
2023/09/03 09:01:13;;;;;;;4.93;2.10;;;;;;;;;;5088983;28;20280;-50
2023/09/03 09:03:42;;;;;;;3.22;1.80;;;;;;;;;;5074241;28;20222;-48
2023/09/03 09:06:09;;;;;;;3.53;1.80;;;;;;;;;;5074749;28;20215;-51
2023/09/03 09:08:38;;;;;;;5.70;2.05;;;;;;;;;;5075879;28;20211;-48
2023/09/03 09:11:11;;;;;;;3.80;2.05;;;;;;;;;;5073305;28;20223;-48
2023/09/03 09:13:42;;;;;;;2.63;1.60;;;;;;;;;;5074384;28;20223;-49
2023/09/03 09:16:09;;;;;;;6.70;1.98;;;;;;;;;;5087158;28;20229;-49
2023/09/03 09:18:39;;;;;;;4.40;1.42;;;;;;;;;;5077809;28;20540;-48
2023/09/03 09:21:07;;;;;;;5.05;1.60;;;;;;;;;;5078695;28;20223;-48
2023/09/03 09:23:34;;;;;;;2.40;1.52;;;;;;;;;;5073521;28;20331;-48
2023/09/03 09:26:14;;;;;;;6.00;1.92;;;;;;;;;;5081699;28;20234;-49
2023/09/03 09:28:56;;;;;;;5.47;1.63;;;;;;;;;;5092044;28;20233;-49
2023/09/03 09:31:32;;;;;;;3.92;1.63;;;;;;;;;;5090372;28;20360;-48
2023/09/03 09:34:03;;;;;;;5.63;1.80;;;;;;;;;;5075582;28;20206;-49
2023/09/03 09:36:31;;;;;;;3.75;1.80;;;;;;;;;;5084780;28;20218;-44
2023/09/03 09:39:08;;;;;;;4.00;1.55;;;;;;;;;;5088308;28;20318;-46
2023/09/03 09:41:37;;;;;;;5.75;1.60;;;;;;;;;;5073272;28;20235;-46
2023/09/03 09:44:11;;;;;;;6.75;1.77;;;;;;;;;;5075895;28;20574;-47
2023/09/03 09:46:39;;;;;;;1.75;1.13;;;;;;;;;;5096019;28;20226;-47
2023/09/03 09:49:07;;;;;;;2.75;1.25;;;;;;;;;;5076919;28;20249;-50
2023/09/03 09:51:34;;;;;;;2.13;1.13;;;;;;;;;;5087835;28;20715;-46
2023/09/03 09:54:03;;;;;;;4.38;1.50;;;;;;;;;;5083800;28;20227;-48
2023/09/03 09:56:37;;;;;;;2.13;1.40;;;;;;;;;;5090734;28;20231;-47
2023/09/03 09:59:09;;;;;;;2.75;1.33;;;;;;;;;;5075414;28;20592;-46
2023/09/03 10:01:46;;;;;;;5.15;1.35;;;;;;;;;;5078512;28;20215;-48
2023/09/03 10:04:25;;;;;;;4.22;1.63;;;;;;;;;;5085082;28;20250;-48
2023/09/03 10:06:53;;;;;;;1.88;1.42;;;;;;;;;;5087511;28;20241;-49
2023/09/03 10:09:21;;;;;;;4.10;1.40;;;;;;;;;;5086249;28;20276;-51
2023/09/03 10:11:48;;;;;;;2.50;1.35;;;;;;;;;;5074986;28;20745;-49
2023/09/03 10:14:15;;;;;;;3.40;1.58;;;;;;;;;;5074693;28;20625;-51
2023/09/03 10:16:42;;;;;;;3.08;1.80;;;;;;;;;;5073765;28;20239;-51
2023/09/03 10:19:11;;;;;;;4.15;1.63;;;;;;;;;;5085229;28;20619;-48
2023/09/03 10:21:39;;;;;;;3.92;1.50;;;;;;;;;;5072361;28;20687;-48
2023/09/03 10:24:20;;;;;;;2.90;1.35;;;;;;;;;;5074254;28;20235;-47
2023/09/03 10:26:52;;;;;;;2.42;1.42;;;;;;;;;;5078265;28;20226;-49
2023/09/03 10:29:20;;;;;;;3.35;1.67;;;;;;;;;;5083714;28;20219;-50
2023/09/03 10:31:48;;;;;;;3.47;1.05;;;;;;;;;;5080666;28;20219;-48
2023/09/03 10:34:15;;;;;;;3.75;1.20;;;;;;;;;;5090462;28;20221;-48
2023/09/03 10:37:02;;;;;;;2.35;1.23;;;;;;;;;;5076372;28;20250;-48
2023/09/03 10:39:29;;;;;;;3.25;1.38;;;;;;;;;;5077602;28;20222;-48
2023/09/03 10:42:15;;;;;;;2.08;1.25;;;;;;;;;;5084335;28;20238;-49
2023/09/03 10:45:03;;;;;;;4.88;1.60;;;;;;;;;;5072480;28;20223;-48
2023/09/03 10:47:30;;;;;;;2.45;1.20;;;;;;;;;;5073806;28;20227;-51
2023/09/03 10:49:57;;;;;;;3.60;1.40;;;;;;;;;;5072792;28;20247;-49
2023/09/03 10:52:31;;;;;;;6.65;1.63;;;;;;;;;;5072810;28;20288;-49
2023/09/03 10:55:21;;;;;;;3.08;1.33;;;;;;;;;;5076330;28;20222;-47
2023/09/03 10:58:11;;;;;;;2.83;1.10;;;;;;;;;;5080653;28;20242;-50
2023/09/03 11:00:38;;;;;;;3.50;1.60;;;;;;;;;;5073276;28;20691;-51
2023/09/03 11:03:18;;;;;;;1.75;1.00;;;;;;;;;;5074085;28;20215;-48
2023/09/03 11:06:16;;;;;;;2.53;1.13;;;;;;;;;;5087739;28;20226;-51
2023/09/03 11:08:44;;;;;;;3.58;1.33;;;;;;;;;;5072768;28;20697;-48
2023/09/03 11:11:18;;;;;;;1.70;1.20;;;;;;;;;;5072498;28;20567;-50
2023/09/03 11:13:52;;;;;;;1.65;1.23;;;;;;;;;;5072966;28;20218;-48
2023/09/03 11:16:29;;;;;;;2.25;1.50;;;;;;;;;;5072780;28;20606;-49
2023/09/03 11:18:57;;;;;;;2.22;1.27;;;;;;;;;;5088832;28;20218;-45
2023/09/03 11:21:25;;;;;;;2.03;1.02;;;;;;;;;;5094037;28;20310;-45
2023/09/03 11:24:03;;;;;;;3.15;1.40;;;;;;;;;;5093555;28;20760;-46
2023/09/03 11:26:32;;;;;;;4.90;1.27;;;;;;;;;;5088227;28;20223;-46
2023/09/03 11:29:02;;;;;;;2.53;1.30;;;;;;;;;;5073376;28;20234;-46
2023/09/03 11:31:30;;;;;;;4.13;1.40;;;;;;;;;;5072395;28;20228;-45
2023/09/03 11:33:57;;;;;;;2.83;1.00;;;;;;;;;;5069550;28;20247;-45
2023/09/03 11:36:24;;;;;;;3.85;1.67;;;;;;;;;;5071689;28;20315;-45
2023/09/03 11:38:55;;;;;;;25.45;3.60;;;;;;;;;;5071891;28;20269;-45
2023/09/03 11:41:22;;;;;;;9.82;2.22;;;;;;;;;;5071439;28;20235;-45
2023/09/03 11:43:50;;;;;;;7.95;1.90;;;;;;;;;;5072421;28;20227;-46
2023/09/03 11:46:18;;;;;;;3.28;1.45;;;;;;;;;;5072687;28;20226;-47
2023/09/03 11:48:50;;;;;;;6.88;1.40;;;;;;;;;;5073247;28;20227;-46
2023/09/03 11:51:25;;;;;;;6.72;1.80;;;;;;;;;;5074643;28;20229;-47
2023/09/03 11:53:55;;;;;;;7.78;2.03;;;;;;;;;;5082594;28;20227;-45
2023/09/03 11:56:23;;;;;;;3.72;1.48;;;;;;;;;;5075237;28;20234;-45
2023/09/03 11:58:55;;;;;;;2.58;1.45;;;;;;;;;;5092519;28;20242;-46
2023/09/03 12:01:23;;;;;;;2.15;1.30;;;;;;;;;;5093063;28;20219;-45
2023/09/03 12:03:51;;;;;;;3.72;1.67;;;;;;;;;;5093427;28;20280;-45
2023/09/03 12:06:18;;;;;;;2.60;1.70;;;;;;;;;;5092016;28;20226;-46
2023/09/03 12:08:45;;;;;;;2.05;1.50;;;;;;;;;;5093405;28;20222;-47
2023/09/03 12:11:12;;;;;;;2.40;1.58;;;;;;;;;;5092790;28;20230;-47
2023/09/03 12:13:41;;;;;;;2.97;1.48;;;;;;;;;;5093474;28;20225;-45
2023/09/03 12:16:15;;;;;;;2.20;1.50;;;;;;;;;;5093035;28;20232;-47
2023/09/03 12:19:01;;;;;;;2.25;1.45;;;;;;;;;;5093181;28;20579;-45
2023/09/03 12:21:35;;;;;;;1.80;1.27;;;;;;;;;;5093183;28;20322;-45
2023/09/03 12:24:06;;;;;;;3.05;1.42;;;;;;;;;;5093194;28;20229;-45
2023/09/03 12:26:37;;;;;;;4.95;1.67;;;;;;;;;;5092527;28;20268;-44
2023/09/03 12:29:18;;;;;;;1.67;1.20;;;;;;;;;;5091851;28;20226;-47
2023/09/03 12:31:45;;;;;;;2.90;1.58;;;;;;;;;;5092307;28;20230;-46
2023/09/03 12:34:15;;;;;;;2.58;1.45;;;;;;;;;;5093061;28;20226;-44
2023/09/03 12:36:56;;;;;;;1.52;1.13;;;;;;;;;;5092903;28;20231;-46
2023/09/03 12:39:34;;;;;;;5.35;1.50;;;;;;;;;;5091390;28;20230;-45
2023/09/03 12:42:03;;;;;;;6.88;1.45;;;;;;;;;;5093037;28;20317;-47
2023/09/03 12:44:31;;;;;;;2.15;1.48;;;;;;;;;;5092747;28;20231;-47
2023/09/03 12:46:58;;;;;;;4.45;1.35;;;;;;;;;;5092842;28;20703;-46
2023/09/03 12:49:26;;;;;;;3.58;1.35;;;;;;;;;;5072776;28;20707;-45
2023/09/03 12:51:55;;;;;;;1.80;1.30;;;;;;;;;;5071210;28;20219;-46
2023/09/03 12:54:22;;;;;;;2.15;1.20;;;;;;;;;;5072114;28;20227;-45
2023/09/03 12:56:50;;;;;;;2.30;1.45;;;;;;;;;;5072462;28;20330;-46
2023/09/03 12:59:18;;;;;;;3.40;1.25;;;;;;;;;;5072618;28;20342;-46
2023/09/03 13:01:44;;;;;;;2.13;1.27;;;;;;;;;;5072196;28;20222;-45
2023/09/03 13:04:13;;;;;;;1.73;1.30;;;;;;;;;;5072253;28;20219;-45
2023/09/03 13:06:41;;;;;;;5.25;1.40;;;;;;;;;;5072205;28;20230;-51
2023/09/03 13:09:10;;;;;;;2.08;1.20;;;;;;;;;;5071881;28;20314;-46
2023/09/03 13:11:37;;;;;;;2.28;1.00;;;;;;;;;;5072417;28;20757;-45
2023/09/03 13:14:05;;;;;;;1.77;1.00;;;;;;;;;;5072075;28;20231;-47
2023/09/03 13:16:32;;;;;;;2.08;1.17;;;;;;;;;;5072635;28;20257;-47
2023/09/03 13:19:00;;;;;;;1.95;1.20;;;;;;;;;;5072311;28;20227;-45
2023/09/03 13:21:29;;;;;;;3.97;1.30;;;;;;;;;;5072110;28;20227;-45
2023/09/03 13:23:56;;;;;;;1.88;1.02;;;;;;;;;;5071947;28;20235;-47
2023/09/03 13:26:23;;;;;;;1.73;1.10;;;;;;;;;;5071982;28;20227;-46
2023/09/03 13:28:51;;;;;;;2.67;1.05;;;;;;;;;;5072303;28;20250;-46
2023/09/03 13:31:21;;;;;;;3.22;0.90;;;;;;;;;;5072397;28;20227;-45
2023/09/03 13:33:48;;;;;;;3.00;1.10;;;;;;;;;;5072288;28;20227;-46
2023/09/03 13:36:17;;;;;;;2.15;1.20;;;;;;;;;;5076671;28;20226;-47
2023/09/03 13:38:45;;;;;;;1.70;1.10;;;;;;;;;;5079305;28;20687;-49
2023/09/03 13:41:12;;;;;;;2.30;1.30;;;;;;;;;;5071687;28;20230;-48
2023/09/03 13:43:43;;;;;;;1.92;1.27;;;;;;;;;;5078558;28;20225;-48
2023/09/03 13:46:10;;;;;;;1.88;1.17;;;;;;;;;;5094676;28;20218;-52
2023/09/03 13:48:38;;;;;;;2.03;1.13;;;;;;;;;;5080552;28;20235;-49
2023/09/03 13:51:09;;;;;;;1.73;1.20;;;;;;;;;;5082781;28;20226;-47
2023/09/03 13:53:38;;;;;;;2.25;1.40;;;;;;;;;;5074349;28;20678;-48
2023/09/03 13:56:06;;;;;;;1.92;1.20;;;;;;;;;;5084024;28;20215;-48
2023/09/03 13:58:34;;;;;;;2.90;1.00;;;;;;;;;;5081339;28;20285;-48
2023/09/03 14:01:08;;;;;;;2.63;1.38;;;;;;;;;;5074694;28;20219;-49
2023/09/03 14:03:36;;;;;;;2.80;1.30;;;;;;;;;;5075081;28;20226;-48
2023/09/03 14:06:07;;;;;;;1.90;1.33;;;;;;;;;;5082881;28;20225;-47
2023/09/03 14:08:35;;;;;;;1.92;1.23;;;;;;;;;;5081411;28;20219;-49
2023/09/03 14:11:02;;;;;;;1.90;1.40;;;;;;;;;;5074227;28;20929;-49
2023/09/03 14:13:31;;;;;;;2.75;1.10;;;;;;;;;;5073732;28;20299;-47
2023/09/03 14:15:59;;;;;;;2.38;1.10;;;;;;;;;;5082309;28;20679;-48
2023/09/03 14:18:30;;;;;;;2.10;1.30;;;;;;;;;;5082800;28;20259;-49
2023/09/03 14:20:57;;;;;;;2.53;1.50;;;;;;;;;;5073921;28;20223;-47
2023/09/03 14:23:24;;;;;;;4.22;1.15;;;;;;;;;;5073770;28;20301;-48
2023/09/03 14:25:51;;;;;;;2.67;1.45;;;;;;;;;;5080150;28;20258;-51
2023/09/03 14:28:19;;;;;;;2.42;1.52;;;;;;;;;;5083967;28;20238;-51
2023/09/03 14:30:47;;;;;;;1.48;1.10;;;;;;;;;;5074321;28;20298;-50
2023/09/03 14:33:14;;;;;;;1.58;1.20;;;;;;;;;;5074087;28;20344;-47
2023/09/03 14:35:42;;;;;;;2.38;1.63;;;;;;;;;;5076994;28;20750;-49
2023/09/03 14:38:10;;;;;;;2.20;1.38;;;;;;;;;;5085228;28;20235;-48
2023/09/03 14:40:38;;;;;;;1.67;1.10;;;;;;;;;;5073035;28;20215;-48
2023/09/03 14:43:05;;;;;;;2.38;1.45;;;;;;;;;;5088763;28;20224;-48
2023/09/03 14:45:32;;;;;;;1.42;1.10;;;;;;;;;;5075719;28;20250;-48
2023/09/03 14:48:00;;;;;;;2.30;1.00;;;;;;;;;;5088327;28;20222;-49
2023/09/03 14:50:27;;;;;;;2.95;1.50;;;;;;;;;;5073479;28;20338;-47
2023/09/03 14:52:55;;;;;;;3.25;1.10;;;;;;;;;;5071745;28;20220;-47
2023/09/03 14:55:22;;;;;;;1.25;0.80;;;;;;;;;;5089746;28;20218;-47
2023/09/03 14:57:52;;;;;;;2.35;1.15;;;;;;;;;;5089437;28;20230;-48